createdAt,value
2019-04-22T00:02:05.803Z,47.61
2019-04-22T00:04:49.828Z,48.36
2019-04-22T00:07:38.894Z,48.94
2019-04-22T00:10:13.388Z,49.24
2019-04-22T00:12:48.661Z,49.67
2019-04-22T00:15:15.206Z,49.85
2019-04-22T00:18:00.300Z,50.24
2019-04-22T00:20:32.174Z,50.37
2019-04-22T00:23:04.071Z,50.51
2019-04-22T00:25:45.949Z,50.76
2019-04-22T00:28:19.928Z,51.10
2019-04-22T00:30:47.140Z,51.40
2019-04-22T00:33:29.086Z,51.68
2019-04-22T00:36:02.749Z,51.96
2019-04-22T00:38:42.042Z,51.76
2019-04-22T00:41:16.673Z,52.20
2019-04-22T00:43:49.762Z,52.40
2019-04-22T00:46:25.109Z,52.54
2019-04-22T00:49:49.088Z,52.38
2019-04-22T00:51:34.389Z,52.77
2019-04-22T00:54:07.293Z,52.87
2019-04-22T00:56:45.498Z,53.29
2019-04-22T00:59:14.456Z,53.39
2019-04-22T01:01:54.405Z,53.43
2019-04-22T01:04:31.585Z,53.51
2019-04-22T01:06:57.514Z,53.70
2019-04-22T01:09:41.852Z,54.03
2019-04-22T01:12:13.842Z,54.16
2019-04-22T01:14:51.955Z,54.33
2019-04-22T01:17:19.361Z,54.48
2019-04-22T01:20:04.468Z,54.68
2019-04-22T01:22:26.727Z,54.77
2019-04-22T01:25:08.332Z,55.13
2019-04-22T01:27:41.571Z,55.42
2019-04-22T01:30:13.958Z,55.72
2019-04-22T01:32:40.011Z,55.86
2019-04-22T01:35:26.103Z,55.99
2019-04-22T01:38:01.648Z,56.07
2019-04-22T01:40:50.822Z,56.20
2019-04-22T01:43:26.896Z,56.45
2019-04-22T01:45:56.221Z,56.54
2019-04-22T01:48:32.588Z,56.69
2019-04-22T01:51:02.318Z,56.92
2019-04-22T01:53:43.040Z,57.11
2019-04-22T01:56:15.859Z,57.09
2019-04-22T01:58:38.151Z,57.20
2019-04-22T02:01:22.142Z,57.22
2019-04-22T02:04:01.326Z,57.08
2019-04-22T02:06:36.380Z,56.92
2019-04-22T02:09:09.451Z,57.08
2019-04-22T02:11:48.724Z,57.05
2019-04-22T02:14:20.346Z,57.33
2019-04-22T02:19:33.468Z,57.79
2019-04-22T02:22:01.673Z,57.81
2019-04-22T02:24:41.160Z,57.87
2019-04-22T02:27:15.025Z,57.99
2019-04-22T02:32:41.624Z,58.42
2019-04-22T02:35:07.654Z,58.52
2019-04-22T02:37:32.292Z,58.65
2019-04-22T02:40:09.196Z,58.87
2019-04-22T02:42:35.160Z,59.11
2019-04-22T02:45:07.637Z,59.18
2019-04-22T02:47:51.522Z,59.23
2019-04-22T02:50:20.776Z,59.33
2019-04-22T02:53:01.136Z,59.30
2019-04-22T02:55:37.041Z,59.55
2019-04-22T02:58:06.240Z,59.63
2019-04-22T03:00:44.371Z,59.76
2019-04-22T03:03:31.711Z,60.25
2019-04-22T03:06:07.362Z,60.15
2019-04-22T03:08:34.206Z,60.42
2019-04-22T03:18:55.601Z,61.32
2019-04-22T03:21:17.964Z,61.29
2019-04-22T03:24:11.411Z,61.46
2019-04-22T03:26:32.058Z,61.69
2019-04-22T03:29:04.770Z,62.06
2019-04-22T03:32:31.970Z,62.08
2019-04-22T03:42:09.921Z,62.93
2019-04-22T03:45:02.778Z,63.14
2019-04-22T03:47:48.078Z,63.41
2019-04-22T03:50:15.822Z,63.77
2019-04-22T03:52:27.845Z,63.87
2019-04-22T03:55:07.720Z,63.99
2019-04-22T04:00:32.559Z,64.29
2019-04-22T04:03:16.026Z,64.22
2019-04-22T04:05:39.518Z,64.18
2019-04-22T04:10:40.224Z,64.20
2019-04-22T04:13:19.694Z,63.86
2019-04-22T04:15:38.577Z,63.09
2019-04-22T04:18:30.854Z,62.73
2019-04-22T04:21:18.788Z,62.51
2019-04-22T04:24:01.365Z,61.99
2019-04-22T04:26:42.494Z,61.37
2019-04-22T04:31:27.333Z,60.88
2019-04-22T04:33:54.253Z,60.58
2019-04-22T04:36:32.244Z,60.61
2019-04-22T04:39:00.563Z,60.57
2019-04-22T04:41:42.439Z,60.63
2019-04-22T04:44:42.039Z,60.93
2019-04-22T04:46:49.693Z,60.94
2019-04-22T04:52:19.322Z,60.88
2019-04-22T04:54:35.934Z,61.07
2019-04-22T04:57:23.932Z,61.31
2019-04-22T05:00:09.965Z,61.08
2019-04-22T05:07:27.708Z,60.88
2019-04-22T05:10:04.159Z,60.48
2019-04-22T05:15:13.342Z,60.25
2019-04-22T05:20:28.962Z,59.98
2019-04-22T05:22:44.802Z,60.04
2019-04-22T05:25:25.205Z,59.71
2019-04-22T05:27:55.569Z,59.25
2019-04-22T05:33:03.006Z,59.04
2019-04-22T05:35:38.987Z,58.75
2019-04-22T05:38:20.093Z,58.29
2019-04-22T05:40:44.109Z,58.22
2019-04-22T05:43:21.565Z,58.08
2019-04-22T05:45:58.851Z,57.79
2019-04-22T05:48:34.276Z,57.83
2019-04-22T05:51:25.716Z,57.36
2019-04-22T05:53:41.957Z,57.24
2019-04-22T05:56:34.228Z,57.39
2019-04-22T06:01:48.808Z,57.38
2019-04-22T06:04:11.665Z,56.87
2019-04-22T06:06:42.973Z,56.77
2019-04-22T06:09:24.561Z,56.52
2019-04-22T06:11:57.079Z,56.69
2019-04-22T06:14:40.379Z,56.56
2019-04-22T06:17:19.935Z,56.09
2019-04-22T06:19:54.179Z,55.53
2019-04-22T06:22:37.149Z,54.83
2019-04-22T06:25:00.994Z,54.77
2019-04-22T06:27:41.668Z,54.61
2019-04-22T06:30:17.279Z,54.31
2019-04-22T06:32:47.195Z,54.62
2019-04-22T06:35:29.927Z,54.49
2019-04-22T06:38:15.995Z,54.38
2019-04-22T06:40:32.852Z,54.43
2019-04-22T06:43:09.174Z,53.80
2019-04-22T06:45:41.593Z,53.50
2019-04-22T06:48:19.654Z,53.56
2019-04-22T06:53:25.614Z,52.69
2019-04-22T06:56:00.520Z,52.38
2019-04-22T06:58:36.646Z,52.56
2019-04-22T07:01:12.574Z,51.94
2019-04-22T07:03:50.632Z,51.31
2019-04-22T07:06:50.797Z,51.95
2019-04-22T07:09:15.732Z,51.77
2019-04-22T07:11:26.575Z,51.58
2019-04-22T07:14:23.851Z,50.72
2019-04-22T07:16:37.851Z,50.17
2019-04-22T07:19:15.137Z,49.82
2019-04-22T07:21:50.905Z,49.08
2019-04-22T07:27:00.228Z,48.35
2019-04-22T07:29:32.716Z,48.09
2019-04-22T07:32:06.778Z,47.66
2019-04-22T07:35:03.775Z,48.50
2019-04-22T07:37:28.186Z,48.55
2019-04-22T07:39:54.971Z,48.20
2019-04-22T07:45:08.613Z,49.77
2019-04-22T07:47:38.434Z,49.69
2019-04-22T07:50:17.017Z,49.08
2019-04-22T07:52:46.700Z,49.70
2019-04-22T07:55:25.571Z,49.67
2019-04-22T07:58:02.355Z,48.73
2019-04-22T08:00:35.716Z,48.82
2019-04-22T08:03:12.092Z,48.53
2019-04-22T08:05:52.117Z,48.65
2019-04-22T08:11:10.313Z,45.91
2019-04-22T08:13:34.164Z,45.07
2019-04-22T08:16:16.439Z,45.81
2019-04-22T08:18:47.532Z,45.00
2019-04-22T08:21:23.753Z,45.97
2019-04-22T08:24:01.520Z,47.08
2019-04-22T08:26:43.167Z,48.32
2019-04-22T08:29:14.557Z,48.98
2019-04-22T08:31:49.130Z,48.34
2019-04-22T08:34:20.935Z,48.08
2019-04-22T08:37:34.265Z,48.35
2019-04-22T08:39:35.888Z,48.75
2019-04-22T08:42:23.459Z,49.36
2019-04-22T08:50:16.474Z,49.99
2019-04-22T08:52:36.871Z,49.98
2019-04-22T08:55:22.992Z,50.63
2019-04-22T08:58:12.974Z,50.93
2019-04-22T09:00:34.781Z,51.34
2019-04-22T09:03:04.447Z,51.60
2019-04-22T09:05:57.821Z,51.29
2019-04-22T09:08:35.761Z,51.00
2019-04-22T09:11:08.172Z,50.93
2019-04-22T09:14:04.209Z,50.95
2019-04-22T09:16:39.852Z,51.06
2019-04-22T09:19:12.603Z,50.64
2019-04-22T09:21:54.535Z,50.37
2019-04-22T09:24:24.901Z,50.29
2019-04-22T09:27:03.512Z,50.41
2019-04-22T09:32:18.668Z,50.75
2019-04-22T09:34:51.702Z,50.66
2019-04-22T09:40:04.614Z,49.74
2019-04-22T09:42:39.339Z,49.94
2019-04-22T09:45:13.243Z,47.58
2019-04-22T09:48:08.788Z,46.61
2019-04-22T09:50:42.092Z,46.35
2019-04-22T09:53:17.660Z,45.90
2019-04-22T09:55:53.163Z,44.28
2019-04-22T09:58:42.622Z,43.36
2019-04-22T10:01:22.615Z,42.84
2019-04-22T10:06:35.434Z,39.96
2019-04-22T10:11:55.106Z,39.04
2019-04-22T10:14:55.763Z,39.33
2019-04-22T10:17:37.982Z,39.40
2019-04-22T10:20:15.096Z,39.36
2019-04-22T10:22:54.309Z,37.67
2019-04-22T10:25:32.734Z,38.01
2019-04-22T10:28:09.234Z,39.83
2019-04-22T10:33:11.680Z,40.91
2019-04-22T10:35:28.722Z,40.90
2019-04-22T10:38:04.177Z,40.13
2019-04-22T10:40:46.830Z,39.95
2019-04-22T10:43:21.198Z,38.30
2019-04-22T10:49:10.384Z,36.40
2019-04-22T10:51:48.726Z,36.59
2019-04-22T10:54:23.554Z,37.09
2019-04-22T10:56:57.450Z,37.78
2019-04-22T10:59:36.542Z,37.35
2019-04-22T11:02:17.360Z,38.96
2019-04-22T11:05:04.115Z,37.21
2019-04-22T11:07:49.193Z,36.87
2019-04-22T11:10:34.599Z,36.20
2019-04-22T11:13:05.112Z,36.13
2019-04-22T11:15:44.487Z,36.23
2019-04-22T11:18:23.642Z,36.78
2019-04-22T11:20:58.125Z,38.23
2019-04-22T11:23:32.375Z,36.18
2019-04-22T11:26:10.117Z,36.38
2019-04-22T11:28:47.644Z,35.57
2019-04-22T11:31:26.403Z,35.91
2019-04-22T11:34:11.108Z,35.75
2019-04-22T11:36:44.988Z,35.71
2019-04-22T11:39:19.735Z,35.64
2019-04-22T11:42:12.133Z,35.35
2019-04-22T11:44:45.441Z,35.83
2019-04-22T11:47:21.470Z,35.30
2019-04-22T11:50:05.988Z,36.16
2019-04-22T11:52:40.560Z,36.03
2019-04-22T11:55:17.033Z,36.95
2019-04-22T11:58:10.760Z,37.40
2019-04-22T12:00:49.938Z,37.76
2019-04-22T12:03:27.174Z,36.13
2019-04-22T12:06:04.041Z,35.78
2019-04-22T12:11:53.909Z,36.11
2019-04-22T12:14:27.741Z,36.43
2019-04-22T12:17:01.807Z,36.42
2019-04-22T12:19:38.206Z,36.76
2019-04-22T12:22:13.189Z,35.00
2019-04-22T12:24:48.152Z,35.45
2019-04-22T12:27:24.025Z,36.39
2019-04-22T12:29:56.841Z,35.34
2019-04-22T12:32:31.764Z,35.73
2019-04-22T12:35:07.350Z,35.53
2019-04-22T12:37:49.936Z,36.29
2019-04-22T12:40:30.098Z,36.19
2019-04-22T12:42:55.622Z,36.53
2019-04-22T12:45:30.041Z,36.68
2019-04-22T12:48:04.192Z,36.44
2019-04-22T12:50:40.797Z,36.29
2019-04-22T12:53:16.686Z,36.19
2019-04-22T12:55:48.104Z,36.30
2019-04-22T12:58:23.421Z,36.95
2019-04-22T13:00:58.941Z,36.73
2019-04-22T13:03:36.149Z,36.05
2019-04-22T13:06:09.938Z,36.51
2019-04-22T13:08:45.546Z,36.68
2019-04-22T13:11:23.959Z,36.37
2019-04-22T13:13:54.840Z,36.16
2019-04-22T13:16:33.368Z,36.15
2019-04-22T13:19:14.997Z,35.71
2019-04-22T13:21:54.594Z,37.06
2019-04-22T13:24:30.046Z,36.19
2019-04-22T13:27:10.939Z,36.50
2019-04-22T13:29:46.563Z,36.20
2019-04-22T13:32:20.611Z,36.86
2019-04-22T13:34:57.180Z,35.92
2019-04-22T13:37:28.714Z,36.24
2019-04-22T13:40:03.425Z,36.23
2019-04-22T13:42:37.505Z,36.06
2019-04-22T13:45:13.397Z,35.42
2019-04-22T13:48:02.871Z,35.99
2019-04-22T13:51:05.862Z,35.21
2019-04-22T13:53:37.723Z,35.36
2019-04-22T13:55:56.606Z,36.01
2019-04-22T13:58:18.453Z,36.61
2019-04-22T14:00:42.555Z,36.92
2019-04-22T14:03:41.613Z,36.69
2019-04-22T14:06:20.569Z,36.21
2019-04-22T14:08:55.580Z,35.76
2019-04-22T14:11:36.711Z,35.86
2019-04-22T14:14:06.887Z,36.30
2019-04-22T14:16:40.809Z,36.12
2019-04-22T14:19:18.386Z,35.96
2019-04-22T14:21:51.642Z,35.69
2019-04-22T14:24:25.982Z,36.09
2019-04-22T14:27:17.913Z,36.65
2019-04-22T14:29:35.551Z,36.66
2019-04-22T14:32:19.357Z,36.65
2019-04-22T14:34:49.208Z,36.87
2019-04-22T14:37:22.472Z,37.37
2019-04-22T14:39:57.820Z,37.45
2019-04-22T14:42:52.244Z,37.63
2019-04-22T14:45:28.750Z,37.80
2019-04-22T14:48:07.744Z,37.58
2019-04-22T14:50:37.235Z,37.50
2019-04-22T14:53:19.397Z,37.66
2019-04-22T14:55:29.599Z,37.76
2019-04-22T14:58:01.314Z,37.73
2019-04-22T15:00:38.180Z,37.83
2019-04-22T15:03:11.348Z,37.73
2019-04-22T15:05:46.167Z,37.37
2019-04-22T15:08:19.390Z,37.51
2019-04-22T15:10:53.820Z,37.06
2019-04-22T15:13:27.448Z,37.17
2019-04-22T15:16:20.115Z,36.85
2019-04-22T15:18:58.145Z,37.00
2019-04-22T15:21:32.366Z,36.80
2019-04-22T15:24:26.876Z,36.44
2019-04-22T15:27:01.281Z,36.77
2019-04-22T15:29:35.689Z,37.13
2019-04-22T15:32:09.438Z,37.17
2019-04-22T15:34:44.463Z,37.13
2019-04-22T15:37:20.351Z,37.25
2019-04-22T15:39:56.657Z,37.25
2019-04-22T15:42:35.553Z,36.10
2019-04-22T15:45:05.930Z,36.27
2019-04-22T15:47:41.788Z,35.95
2019-04-22T15:50:16.204Z,36.31
2019-04-22T15:52:53.036Z,36.60
2019-04-22T15:55:24.652Z,36.92
2019-04-22T15:58:05.977Z,37.48
2019-04-22T16:00:54.126Z,37.52
2019-04-22T16:03:24.795Z,37.65
2019-04-22T16:06:02.024Z,37.69
2019-04-22T16:08:47.909Z,37.33
2019-04-22T16:11:24.842Z,37.23
2019-04-22T16:13:58.187Z,37.21
2019-04-22T16:16:34.744Z,36.76
2019-04-22T16:19:08.723Z,36.67
2019-04-22T16:21:53.620Z,36.24
2019-04-22T16:24:40.437Z,36.80
2019-04-22T16:27:18.643Z,37.00
2019-04-22T16:29:51.878Z,37.17
2019-04-22T16:32:25.601Z,37.50
2019-04-22T16:34:59.059Z,37.85
2019-04-22T16:37:32.952Z,37.73
2019-04-22T16:40:09.179Z,37.57
2019-04-22T16:42:47.731Z,37.92
2019-04-22T16:45:19.899Z,38.12
2019-04-22T16:47:57.876Z,38.20
2019-04-22T16:50:35.026Z,38.41
2019-04-22T16:53:14.787Z,38.48
2019-04-22T16:55:50.481Z,38.82
2019-04-22T16:58:25.218Z,39.07
2019-04-22T17:01:00.391Z,39.10
2019-04-22T17:03:52.349Z,39.25
2019-04-22T17:06:31.826Z,38.93
2019-04-22T17:09:06.719Z,38.50
2019-04-22T17:11:40.281Z,38.01
2019-04-22T17:14:17.060Z,37.89
2019-04-22T17:16:48.576Z,38.02
2019-04-22T17:19:21.763Z,38.10
2019-04-22T17:21:55.302Z,37.96
2019-04-22T17:24:29.986Z,38.11
2019-04-22T17:27:04.545Z,38.20
2019-04-22T17:29:38.932Z,38.54
2019-04-22T17:32:21.177Z,38.96
2019-04-22T17:35:24.234Z,39.12
2019-04-22T17:38:10.088Z,39.30
2019-04-22T17:40:58.151Z,39.60
2019-04-22T17:43:52.342Z,39.67
2019-04-22T17:46:19.679Z,39.87
2019-04-22T17:49:21.886Z,39.76
2019-04-22T17:52:09.081Z,39.87
2019-04-22T17:54:48.852Z,40.00
2019-04-22T17:57:35.764Z,40.19
2019-04-22T18:00:21.718Z,40.34
2019-04-22T18:02:48.431Z,40.61
2019-04-22T18:05:33.099Z,40.80
2019-04-22T18:08:20.461Z,40.90
2019-04-22T18:10:58.659Z,41.14
2019-04-22T18:13:44.355Z,41.18
2019-04-22T18:16:27.582Z,41.26
2019-04-22T18:19:05.546Z,41.38
2019-04-22T18:21:40.728Z,41.42
2019-04-22T18:25:04.861Z,41.55
2019-04-22T18:28:09.125Z,41.61
2019-04-22T18:30:46.636Z,41.73
2019-04-22T18:33:47.821Z,41.84
2019-04-22T18:36:36.059Z,41.94
2019-04-22T18:39:33.461Z,42.18
2019-04-22T18:42:06.000Z,42.34
2019-04-22T18:45:30.040Z,42.52
2019-04-22T18:47:48.893Z,42.61
2019-04-22T18:50:45.318Z,42.79
2019-04-22T18:53:44.612Z,42.86
2019-04-22T18:56:27.205Z,43.09
2019-04-22T18:58:59.580Z,43.32
2019-04-22T19:02:19.975Z,43.48
2019-04-22T19:05:12.159Z,43.72
2019-04-22T19:08:07.417Z,43.83
2019-04-22T19:10:43.117Z,43.96
2019-04-22T19:13:37.740Z,44.14
2019-04-22T19:15:54.303Z,44.19
2019-04-22T19:18:32.385Z,44.38
2019-04-22T19:21:02.685Z,44.28
2019-04-22T19:23:33.227Z,44.29
2019-04-22T19:26:06.064Z,44.24
2019-04-22T19:28:48.317Z,44.37
2019-04-22T19:31:21.913Z,44.41
2019-04-22T19:34:01.619Z,44.38
2019-04-22T19:36:36.401Z,44.59
2019-04-22T19:39:07.992Z,44.50
2019-04-22T19:41:54.286Z,44.59
2019-04-22T19:44:25.945Z,44.82
2019-04-22T19:47:18.347Z,44.77
2019-04-22T19:49:48.387Z,44.89
2019-04-22T19:52:24.374Z,44.93
2019-04-22T19:55:01.846Z,45.14
2019-04-22T19:57:52.329Z,45.17
2019-04-22T20:04:19.261Z,45.32
2019-04-22T20:06:53.405Z,45.41
2019-04-22T20:09:39.804Z,45.37
2019-04-22T20:12:13.466Z,45.59
2019-04-22T20:14:48.081Z,45.63
2019-04-22T20:17:29.646Z,45.74
2019-04-22T20:20:18.182Z,45.80
2019-04-22T20:22:32.769Z,45.98
2019-04-22T20:24:59.996Z,46.10
2019-04-22T20:27:47.403Z,46.25
2019-04-22T20:30:23.457Z,46.26
2019-04-22T20:32:56.657Z,46.55
2019-04-22T20:35:40.125Z,46.58
2019-04-22T20:38:14.853Z,46.64
2019-04-22T20:40:42.524Z,46.73
2019-04-22T20:43:28.917Z,46.88
2019-04-22T20:46:00.521Z,46.98
2019-04-22T20:48:40.465Z,47.08
2019-04-22T20:51:12.480Z,47.19
2019-04-22T20:53:47.933Z,47.17
2019-04-22T20:56:21.920Z,47.22
2019-04-22T20:58:55.764Z,47.27
2019-04-22T21:01:34.435Z,47.35
2019-04-22T21:03:56.649Z,47.45
2019-04-22T21:06:42.773Z,47.50
2019-04-22T21:09:18.073Z,47.60
2019-04-22T21:11:49.410Z,47.55
2019-04-22T21:14:24.450Z,47.62
2019-04-22T21:17:03.494Z,47.45
2019-04-22T21:19:46.455Z,47.42
2019-04-22T21:22:18.129Z,47.27
2019-04-22T21:24:46.041Z,47.31
2019-04-22T21:27:44.882Z,47.12
2019-04-22T21:29:49.254Z,46.75
2019-04-22T21:32:34.382Z,46.75
2019-04-22T21:35:18.253Z,46.76
2019-04-22T21:37:42.975Z,46.78
2019-04-22T21:40:26.104Z,46.54
2019-04-22T21:42:59.699Z,46.57
2019-04-22T21:45:25.274Z,46.57
2019-04-22T21:50:48.263Z,46.59
2019-04-22T21:53:22.757Z,46.71
2019-04-22T21:56:04.337Z,46.79
2019-04-22T21:58:31.858Z,46.98
2019-04-22T22:01:33.588Z,47.07
2019-04-22T22:03:55.811Z,46.88
2019-04-22T22:06:21.820Z,46.85
2019-04-22T22:09:02.536Z,46.89
2019-04-22T22:11:33.885Z,46.67
2019-04-22T22:14:11.689Z,46.79
2019-04-22T22:16:42.632Z,46.90
2019-04-22T22:19:30.185Z,46.78
2019-04-22T22:22:05.956Z,46.87
2019-04-22T22:24:41.497Z,46.96
2019-04-22T22:27:11.088Z,47.16
2019-04-22T22:32:26.144Z,47.18
2019-04-22T22:34:59.723Z,47.37
2019-04-22T22:37:17.025Z,47.51
2019-04-22T22:39:55.465Z,47.70
2019-04-22T22:42:30.293Z,47.92
2019-04-22T22:45:07.849Z,48.01
2019-04-22T22:47:44.200Z,48.04
2019-04-22T22:50:26.030Z,48.19
2019-04-22T22:53:15.441Z,48.29
2019-04-22T22:55:35.851Z,48.33
2019-04-22T22:58:10.408Z,48.34
2019-04-22T23:00:41.139Z,48.47
2019-04-22T23:05:57.450Z,48.73
2019-04-22T23:08:34.386Z,48.68
2019-04-22T23:11:05.344Z,48.72
2019-04-22T23:13:44.240Z,48.81
2019-04-22T23:16:04.941Z,48.73
2019-04-22T23:18:30.219Z,48.74
2019-04-22T23:21:08.239Z,48.71
2019-04-22T23:24:00.777Z,48.69
2019-04-22T23:26:40.758Z,48.77
2019-04-22T23:29:24.875Z,48.72
2019-04-22T23:32:00.669Z,48.75
2019-04-22T23:34:32.695Z,48.75
2019-04-22T23:37:39.628Z,48.78
2019-04-22T23:40:26.003Z,48.74
2019-04-22T23:42:53.022Z,48.79
2019-04-22T23:45:30.877Z,48.66
2019-04-22T23:47:56.720Z,48.63
2019-04-22T23:50:41.474Z,48.56
2019-04-22T23:53:47.975Z,48.48
2019-04-22T23:56:07.839Z,48.48
